createdAt,value
2023-04-11T03:48:12.588Z,848.28
2023-04-11T03:50:39.723Z,850.97
2023-04-11T03:53:07.149Z,839.30
2023-04-11T03:55:33.937Z,840.63
2023-04-11T03:58:00.707Z,844.42
2023-04-11T04:00:28.356Z,852.72
2023-04-11T04:02:55.317Z,843.75
2023-04-11T04:05:22.270Z,843.72
2023-04-11T04:07:48.928Z,842.60
2023-04-11T04:10:15.717Z,843.63
2023-04-11T04:12:42.336Z,841.90
2023-04-11T04:15:09.537Z,845.00
2023-04-11T04:17:36.185Z,845.53
2023-04-11T04:20:04.244Z,836.38
2023-04-11T04:22:31.139Z,838.90
2023-04-11T04:24:58.225Z,834.43
2023-04-11T04:27:25.130Z,837.03
2023-04-11T04:29:56.498Z,839.03
2023-04-11T04:32:28.700Z,842.13
2023-04-11T04:34:55.558Z,836.45
2023-04-11T04:37:25.015Z,838.50
2023-04-11T04:39:55.977Z,838.15
2023-04-11T04:42:24.330Z,826.50
2023-04-11T04:44:52.410Z,833.10
2023-04-11T04:47:19.832Z,832.03
2023-04-11T04:49:46.770Z,823.92
2023-04-11T04:52:14.579Z,825.70
2023-04-11T04:54:41.872Z,829.58
2023-04-11T04:57:08.597Z,831.22
2023-04-11T04:59:35.382Z,827.10
2023-04-11T05:02:02.172Z,829.95
2023-04-11T05:04:29.890Z,839.50
2023-04-11T05:06:56.813Z,832.17
2023-04-11T05:09:23.501Z,837.47
2023-04-11T05:11:50.638Z,829.20
2023-04-11T05:14:17.633Z,838.75
2023-04-11T05:16:44.498Z,834.05
2023-04-11T05:19:11.328Z,824.85
2023-04-11T05:21:38.759Z,821.30
2023-04-11T05:24:05.669Z,820.95
2023-04-11T05:26:32.310Z,820.78
2023-04-11T05:29:00.885Z,822.50
2023-04-11T05:31:27.693Z,813.33
2023-04-11T05:33:54.721Z,814.70
2023-04-11T05:36:21.673Z,827.95
2023-04-11T05:38:49.141Z,822.90
2023-04-11T05:41:15.857Z,819.87
2023-04-11T05:43:42.519Z,813.50
2023-04-11T05:46:09.430Z,812.08
2023-04-11T05:48:38.026Z,809.05
2023-04-11T05:51:05.422Z,809.72
2023-04-11T05:53:32.098Z,814.20
2023-04-11T05:55:58.934Z,807.95
2023-04-11T05:58:25.746Z,801.00
2023-04-11T06:00:52.407Z,812.25
2023-04-11T06:03:19.117Z,819.08
2023-04-11T06:05:46.035Z,812.10
2023-04-11T06:08:12.845Z,816.30
2023-04-11T06:10:41.227Z,812.60
2023-04-11T06:13:07.834Z,815.57
2023-04-11T06:15:34.667Z,815.05
2023-04-11T06:18:01.480Z,822.33
2023-04-11T06:20:28.341Z,816.63
2023-04-11T06:22:55.201Z,821.67
2023-04-11T06:25:21.964Z,819.65
2023-04-11T06:27:48.820Z,816.58
2023-04-11T06:30:15.631Z,812.10
2023-04-11T06:32:42.593Z,812.27
2023-04-11T06:35:09.708Z,821.78
2023-04-11T06:37:36.382Z,818.53
2023-04-11T06:40:05.665Z,820.47
2023-04-11T06:42:32.620Z,817.65
2023-04-11T06:44:59.296Z,813.60
2023-04-11T06:47:26.247Z,812.45
2023-04-11T06:49:52.938Z,817.08
2023-04-11T06:52:19.648Z,813.20
2023-04-11T06:54:47.982Z,806.90
2023-04-11T06:57:14.665Z,816.33
2023-04-11T06:59:41.346Z,811.97
2023-04-11T07:02:08.279Z,809.80
2023-04-11T07:04:35.120Z,822.63
2023-04-11T07:07:02.003Z,822.83
2023-04-11T07:09:28.798Z,827.33
2023-04-11T07:11:56.180Z,817.88
2023-04-11T07:14:22.879Z,820.78
2023-04-11T07:16:49.520Z,825.35
2023-04-11T07:19:16.106Z,820.42
2023-04-11T07:21:42.880Z,823.45
2023-04-11T07:24:10.566Z,819.42
2023-04-11T07:26:38.507Z,826.08
2023-04-11T07:29:06.054Z,819.40
2023-04-11T07:31:33.818Z,811.13
2023-04-11T07:34:00.617Z,826.20
2023-04-11T07:36:27.354Z,819.20
2023-04-11T07:38:54.045Z,816.97
2023-04-11T07:41:20.925Z,818.53
2023-04-11T07:43:47.649Z,816.53
2023-04-11T07:46:15.328Z,808.95
2023-04-11T07:48:42.937Z,808.28
2023-04-11T07:51:09.665Z,807.97
2023-04-11T07:53:36.467Z,806.30
2023-04-11T07:56:03.317Z,814.00
2023-04-11T07:58:30.261Z,814.03
2023-04-11T08:00:57.000Z,820.80
2023-04-11T08:03:24.048Z,823.53
2023-04-11T08:05:52.102Z,824.50
2023-04-11T08:08:18.882Z,824.33
2023-04-11T08:10:45.781Z,823.60
2023-04-11T08:13:12.577Z,826.13
2023-04-11T08:15:39.339Z,826.95
2023-04-11T08:18:06.207Z,830.77
2023-04-11T08:20:33.005Z,827.20
2023-04-11T08:23:00.554Z,827.95
2023-04-11T08:25:27.386Z,842.05
2023-04-11T08:27:54.094Z,838.85
2023-04-11T08:30:21.148Z,844.58
2023-04-11T08:32:47.847Z,844.50
2023-04-11T08:35:14.605Z,837.60
2023-04-11T08:37:41.569Z,834.60
2023-04-11T08:40:09.160Z,840.53
2023-04-11T08:42:36.022Z,830.17
2023-04-11T08:45:05.860Z,831.45
2023-04-11T08:47:32.591Z,834.10
2023-04-11T08:49:59.274Z,831.97
2023-04-11T08:52:26.389Z,833.72
2023-04-11T08:54:57.240Z,832.50
2023-04-11T08:57:31.193Z,834.83
2023-04-11T09:00:19.032Z,824.25
2023-04-11T09:03:06.583Z,826.53
2023-04-11T09:05:35.260Z,827.10
2023-04-11T09:08:06.820Z,818.20
2023-04-11T09:10:33.985Z,817.97
2023-04-11T09:13:02.086Z,823.23
2023-04-11T09:15:30.761Z,821.72
2023-04-11T09:18:00.370Z,814.85
2023-04-11T09:20:30.335Z,819.97
2023-04-11T09:22:59.068Z,829.15
2023-04-11T09:25:25.914Z,829.78
2023-04-11T09:28:07.900Z,846.55
2023-04-11T09:30:35.172Z,852.30
2023-04-11T09:33:22.580Z,882.92
2023-04-11T09:35:52.318Z,884.33
2023-04-11T09:38:33.748Z,894.53
2023-04-11T09:41:02.185Z,900.75
2023-04-11T09:43:49.418Z,907.22
2023-04-11T09:46:18.748Z,911.28
2023-04-11T09:48:47.131Z,908.40
2023-04-11T09:51:24.306Z,908.00
2023-04-11T09:53:58.997Z,903.80
2023-04-11T09:56:26.638Z,893.47
2023-04-11T09:58:56.486Z,888.33
2023-04-11T10:01:24.434Z,885.35
2023-04-11T10:03:51.284Z,880.08
2023-04-11T10:06:42.857Z,876.85
2023-04-11T10:09:13.773Z,879.47
2023-04-11T10:11:44.524Z,874.28
2023-04-11T10:14:39.411Z,884.53
2023-04-11T10:17:17.664Z,876.65
2023-04-11T10:19:48.119Z,882.70
2023-04-11T10:22:43.344Z,893.20
2023-04-11T10:25:26.776Z,899.55
2023-04-11T10:28:04.085Z,909.60
2023-04-11T10:30:39.850Z,916.40
2023-04-11T10:33:14.587Z,911.17
2023-04-11T10:36:03.763Z,911.72
2023-04-11T10:38:48.425Z,910.58
2023-04-11T10:41:34.257Z,904.13
2023-04-11T10:44:18.363Z,903.25
2023-04-11T10:46:50.454Z,902.40
2023-04-11T10:49:37.942Z,903.05
2023-04-11T10:52:23.896Z,905.75
2023-04-11T10:54:52.562Z,897.03
2023-04-11T10:57:19.806Z,907.22
2023-04-11T10:59:49.466Z,897.65
2023-04-11T11:02:16.831Z,892.65
2023-04-11T11:04:43.669Z,888.47
2023-04-11T11:07:15.569Z,878.65
2023-04-11T11:09:48.994Z,851.00
2023-04-11T11:12:16.815Z,845.65
2023-04-11T11:14:45.688Z,855.90
2023-04-11T11:17:14.298Z,848.83
2023-04-11T11:19:48.562Z,850.53
2023-04-11T11:22:16.597Z,843.53
2023-04-11T11:24:43.406Z,849.92
2023-04-11T11:27:24.048Z,842.40
2023-04-11T11:29:51.500Z,848.33
2023-04-11T11:32:29.226Z,846.60
2023-04-11T11:34:57.465Z,843.00
2023-04-11T11:37:24.795Z,844.92
2023-04-11T11:39:52.041Z,839.30
2023-04-11T11:42:18.809Z,847.33
2023-04-11T11:44:45.798Z,842.30
2023-04-11T11:47:15.104Z,849.63
2023-04-11T11:49:46.207Z,848.08
2023-04-11T11:52:30.936Z,842.92
2023-04-11T11:54:57.545Z,835.65
2023-04-11T11:57:24.239Z,840.92
2023-04-11T11:59:54.926Z,844.78
2023-04-11T12:02:23.712Z,844.25
2023-04-11T12:04:51.197Z,844.33
2023-04-11T12:07:22.783Z,844.35
2023-04-11T12:09:49.795Z,851.80
2023-04-11T12:12:19.372Z,853.70
2023-04-11T12:14:54.991Z,842.33
2023-04-11T12:17:21.789Z,850.20
2023-04-11T12:19:48.602Z,851.97
2023-04-11T12:22:15.743Z,844.17
2023-04-11T12:24:42.372Z,835.60
2023-04-11T12:27:10.737Z,841.33
2023-04-11T12:29:37.979Z,834.00
2023-04-11T12:32:04.654Z,838.78
2023-04-11T12:34:31.290Z,843.55
2023-04-11T12:36:58.033Z,831.65
2023-04-11T12:39:24.862Z,842.28
2023-04-11T12:41:51.480Z,845.22
2023-04-11T12:44:18.287Z,839.33
2023-04-11T12:46:45.032Z,844.60
2023-04-11T12:49:11.778Z,846.03
2023-04-11T12:51:38.382Z,837.25
2023-04-11T12:54:04.981Z,831.35
2023-04-11T12:56:32.469Z,824.45
2023-04-11T12:58:59.197Z,833.80
2023-04-11T13:01:26.252Z,833.07
2023-04-11T13:03:53.077Z,825.10
2023-04-11T13:06:19.865Z,848.20
2023-04-11T13:08:47.028Z,846.75
2023-04-11T13:11:13.722Z,858.95
2023-04-11T13:13:40.320Z,852.63
2023-04-11T13:16:08.479Z,851.20
2023-04-11T13:18:35.226Z,869.58
2023-04-11T13:21:01.955Z,863.80
2023-04-11T13:23:28.563Z,850.85
2023-04-11T13:25:55.184Z,850.30
2023-04-11T13:28:21.781Z,854.28
2023-04-11T13:30:48.439Z,857.58
2023-04-11T13:33:15.109Z,858.03
2023-04-11T13:35:41.698Z,860.00
2023-04-11T13:38:08.492Z,840.80
2023-04-11T13:40:35.798Z,833.35
2023-04-11T13:43:02.456Z,835.33
2023-04-11T13:45:29.159Z,831.75
2023-04-11T13:47:55.924Z,836.17
2023-04-11T13:50:22.527Z,856.97
2023-04-11T13:52:49.165Z,868.53
2023-04-11T13:55:16.362Z,865.47
2023-04-11T13:57:42.969Z,862.13
2023-04-11T14:00:12.752Z,852.23
2023-04-11T14:02:40.722Z,869.55
2023-04-11T14:05:09.216Z,877.38
2023-04-11T14:07:36.017Z,857.92
2023-04-11T14:10:02.909Z,867.42
2023-04-11T14:12:29.567Z,878.67
2023-04-11T14:14:56.203Z,884.60
2023-04-11T14:17:22.863Z,883.83
2023-04-11T14:19:49.529Z,883.57
2023-04-11T14:22:16.424Z,883.73
2023-04-11T14:24:43.276Z,883.17
2023-04-11T14:27:10.196Z,876.03
2023-04-11T14:29:37.495Z,882.38
2023-04-11T14:32:04.732Z,879.92
2023-04-11T14:34:31.486Z,865.80
2023-04-11T14:36:58.158Z,873.28
2023-04-11T14:39:24.836Z,874.55
2023-04-11T14:41:51.498Z,875.17
2023-04-11T14:44:18.188Z,879.65
2023-04-11T14:46:44.904Z,874.53
2023-04-11T14:49:11.598Z,888.70
2023-04-11T14:51:38.702Z,885.95
2023-04-11T14:54:05.548Z,885.10
2023-04-11T14:56:32.384Z,887.97
2023-04-11T14:58:59.068Z,885.65
2023-04-11T15:01:26.554Z,891.40
2023-04-11T15:03:54.486Z,886.25
2023-04-11T15:06:21.516Z,891.13
2023-04-11T15:08:49.135Z,885.72
2023-04-11T15:11:17.051Z,886.08
2023-04-11T15:13:47.836Z,884.45
2023-04-11T15:16:14.570Z,888.63
2023-04-11T15:18:41.245Z,893.30
2023-04-11T15:21:08.387Z,908.83
2023-04-11T15:23:35.318Z,904.97
2023-04-11T15:26:03.606Z,907.20
2023-04-11T15:28:39.072Z,901.22
2023-04-11T15:31:08.934Z,897.50
2023-04-11T15:33:36.584Z,891.53
2023-04-11T15:36:03.315Z,888.85
2023-04-11T15:38:29.948Z,887.13
2023-04-11T15:40:59.269Z,887.20
2023-04-11T15:43:26.381Z,885.27
2023-04-11T15:45:54.049Z,877.55
2023-04-11T15:48:20.859Z,876.70
2023-04-11T15:50:47.512Z,849.95
2023-04-11T15:53:14.164Z,852.08
2023-04-11T15:55:41.962Z,856.72
2023-04-11T15:58:09.027Z,857.25
2023-04-11T16:00:37.147Z,850.50
2023-04-11T16:03:05.331Z,852.58
2023-04-11T16:05:32.533Z,844.05
2023-04-11T16:07:59.405Z,848.28
2023-04-11T16:10:26.457Z,864.35
2023-04-11T16:12:53.301Z,848.65
2023-04-11T16:15:20.096Z,862.80
2023-04-11T16:17:46.792Z,852.55
2023-04-11T16:20:18.230Z,859.65
2023-04-11T16:22:46.170Z,851.90
2023-04-11T16:25:15.700Z,871.80
2023-04-11T16:27:42.331Z,868.80
2023-04-11T16:30:09.451Z,875.88
2023-04-11T16:32:36.281Z,876.97
2023-04-11T16:35:03.017Z,872.72
2023-04-11T16:37:29.934Z,869.80
2023-04-11T16:39:57.760Z,870.33
2023-04-11T16:42:24.668Z,869.08
2023-04-11T16:44:51.340Z,864.92
2023-04-11T16:47:18.545Z,843.55
2023-04-11T16:49:46.872Z,860.95
2023-04-11T16:52:13.735Z,848.90
2023-04-11T16:54:40.440Z,857.60
2023-04-11T16:57:07.150Z,856.15
2023-04-11T16:59:34.353Z,851.60
2023-04-11T17:02:01.063Z,846.58
2023-04-11T17:04:27.954Z,855.00
2023-04-11T17:06:55.770Z,862.00
2023-04-11T17:09:22.409Z,858.65
2023-04-11T17:11:49.097Z,849.22
2023-04-11T17:14:16.008Z,854.70
2023-04-11T17:16:43.458Z,854.00
2023-04-11T17:19:10.506Z,844.35
2023-04-11T17:21:37.167Z,841.78
2023-04-11T17:24:03.957Z,845.72
2023-04-11T17:26:30.713Z,838.20
2023-04-11T17:28:57.478Z,840.50
2023-04-11T17:31:27.494Z,833.63
2023-04-11T17:33:54.297Z,838.33
2023-04-11T17:36:21.494Z,837.13
2023-04-11T17:38:48.401Z,833.30
2023-04-11T17:41:15.826Z,836.47
2023-04-11T17:43:43.575Z,839.67
2023-04-11T17:46:10.425Z,834.45
2023-04-11T17:48:37.235Z,832.13
2023-04-11T17:51:05.694Z,831.42
2023-04-11T17:53:32.896Z,833.73
2023-04-11T17:56:04.376Z,841.53
2023-04-11T17:58:31.771Z,844.08
2023-04-11T18:00:58.550Z,835.28
2023-04-11T18:03:26.086Z,828.70
2023-04-11T18:05:54.347Z,821.85
2023-04-11T18:08:28.727Z,825.05
2023-04-11T18:11:04.126Z,831.72
2023-04-11T18:13:31.539Z,823.20
2023-04-11T18:15:58.388Z,825.75
2023-04-11T18:18:25.539Z,833.17
2023-04-11T18:20:52.119Z,824.28
2023-04-11T18:23:18.732Z,819.40
2023-04-11T18:25:45.402Z,826.60
2023-04-11T18:28:12.034Z,825.10
2023-04-11T18:30:38.736Z,817.88
2023-04-11T18:33:05.635Z,816.85
2023-04-11T18:35:32.482Z,817.85
2023-04-11T18:37:59.914Z,814.83
2023-04-11T18:40:26.869Z,818.05
2023-04-11T18:42:55.296Z,815.75
2023-04-11T18:45:23.426Z,812.33
2023-04-11T18:47:50.591Z,805.42
2023-04-11T18:50:18.641Z,806.80
2023-04-11T18:52:46.400Z,802.45
2023-04-11T18:55:14.222Z,812.00
2023-04-11T18:57:41.621Z,795.33
2023-04-11T19:00:18.573Z,797.17
2023-04-11T19:02:46.762Z,792.72
2023-04-11T19:05:14.249Z,795.35
2023-04-11T19:07:42.064Z,795.20
2023-04-11T19:10:10.757Z,791.80
2023-04-11T19:12:37.437Z,802.25
2023-04-11T19:15:06.759Z,801.53
2023-04-11T19:17:38.235Z,790.75
2023-04-11T19:20:12.817Z,796.47
2023-04-11T19:22:40.829Z,776.63
2023-04-11T19:25:13.332Z,791.28
2023-04-11T19:27:41.753Z,787.17
2023-04-11T19:30:10.116Z,776.53
2023-04-11T19:32:40.433Z,782.87
2023-04-11T19:35:10.775Z,778.57
2023-04-11T19:37:37.862Z,783.67
2023-04-11T19:40:11.016Z,773.92
2023-04-11T19:42:39.749Z,780.73
2023-04-11T19:45:08.757Z,786.58
2023-04-11T19:47:35.582Z,774.05
2023-04-11T19:50:02.500Z,772.87
2023-04-11T19:52:29.182Z,782.85
2023-04-11T19:54:56.547Z,780.00
2023-04-11T19:57:26.384Z,779.85
2023-04-11T19:59:53.192Z,765.72
2023-04-11T20:02:20.088Z,763.45
2023-04-11T20:04:46.839Z,785.47
2023-04-11T20:07:13.525Z,765.25
2023-04-11T20:09:40.186Z,751.73
2023-04-11T20:12:07.327Z,772.53
2023-04-11T20:14:34.215Z,782.88
2023-04-11T20:17:01.319Z,777.67
2023-04-11T20:19:29.525Z,775.73
2023-04-11T20:21:56.394Z,782.65
2023-04-11T20:24:23.785Z,760.33
2023-04-11T20:26:51.113Z,768.45
2023-04-11T20:29:18.251Z,751.67
2023-04-11T20:31:45.014Z,753.28
2023-04-11T20:34:11.806Z,761.13
2023-04-11T20:36:38.804Z,762.85
2023-04-11T20:39:06.094Z,753.72
2023-04-11T20:41:32.768Z,776.65
2023-04-11T20:43:59.777Z,769.92
2023-04-11T20:46:29.823Z,772.75
2023-04-11T20:48:56.884Z,781.67
2023-04-11T20:51:24.977Z,780.03
2023-04-11T20:53:51.747Z,775.38
2023-04-11T20:56:18.394Z,776.03
2023-04-11T20:58:46.430Z,782.42
2023-04-11T21:01:13.466Z,784.80
2023-04-11T21:03:42.431Z,777.60
2023-04-11T21:06:10.212Z,777.67
2023-04-11T21:08:37.388Z,778.90
2023-04-11T21:11:05.524Z,788.47
2023-04-11T21:13:32.191Z,787.45
2023-04-11T21:15:58.910Z,781.33
2023-04-11T21:18:25.658Z,778.87
2023-04-11T21:20:52.364Z,785.05
2023-04-11T21:23:18.964Z,778.17
2023-04-11T21:25:45.572Z,778.05
2023-04-11T21:28:12.226Z,781.45
2023-04-11T21:30:39.625Z,782.30
2023-04-11T21:33:06.409Z,783.42
2023-04-11T21:35:33.151Z,773.03
2023-04-11T21:37:59.835Z,785.92
2023-04-11T21:40:26.484Z,774.72
2023-04-11T21:42:53.501Z,776.78
2023-04-11T21:45:20.219Z,779.25
2023-04-11T21:47:47.166Z,772.30
2023-04-11T21:50:13.892Z,776.55
2023-04-11T21:52:40.587Z,775.40
2023-04-11T21:55:09.002Z,774.95
2023-04-11T21:57:35.967Z,774.05
2023-04-11T22:00:08.223Z,779.50
2023-04-11T22:02:35.745Z,766.25
2023-04-11T22:05:06.904Z,756.33
2023-04-11T22:07:38.385Z,750.15
2023-04-11T22:10:09.664Z,754.70
2023-04-11T22:12:36.768Z,756.38
2023-04-11T22:15:05.160Z,749.00
2023-04-11T22:17:32.257Z,755.38
2023-04-11T22:19:58.901Z,756.42
2023-04-11T22:22:32.506Z,745.15
2023-04-11T22:24:59.897Z,752.08
2023-04-11T22:27:27.304Z,750.22
2023-04-11T22:29:57.651Z,748.25
2023-04-11T22:32:24.448Z,743.08
2023-04-11T22:34:51.234Z,759.00
2023-04-11T22:37:17.999Z,758.92
2023-04-11T22:39:44.624Z,746.22
2023-04-11T22:42:11.635Z,746.72
2023-04-11T22:44:38.462Z,750.30
2023-04-11T22:47:07.183Z,750.70
2023-04-11T22:49:40.368Z,746.45
2023-04-11T22:52:09.365Z,746.90
2023-04-11T22:54:36.364Z,745.93
2023-04-11T22:57:03.085Z,733.10
2023-04-11T22:59:29.745Z,744.95
